• Join FlightAware (Why Join?)
  • Login
  • US Flag 
06:04AM EDT


 

Airport Tracker/Info


-or-


 

Live Flight TrackerFlight Track Log ✈ CTL14 ✈ 10-Jun-2013 ✈ KPWK - KOSU

Flight Track Log - Related Links

Times and Time Zones

All times are in EDT time to prevent confusion due to time zone crossing. See the CTL14 flight status page for this flight to view local times or setup timezone preferences in your user account.

Time Position Orientation Groundspeed Altitude Reporting Facility
EDT Latitude Longitude Course Direction KTS MPH feet Rate Location/Type
12:27AM 42.2000 -87.8500 118° Southeast 166 191 2,200  Level Chicago TRACON
12:27AM 42.2000 -87.8000 90° East 157 181 2,800 420 Climbing Chicago TRACON
12:28AM 42.2044 -87.7947 41° Northeast 161 185 2,700 420 Descending Chicago Center
12:29AM 42.2078 -87.7356 86° East 160 184 3,400 540 Climbing Chicago Center
12:30AM 42.2108 -87.6772 86° East 158 182 3,800 540 Climbing Chicago Center
12:31AM 42.1811 -87.6167 124° Southeast 162 186 4,500 540 Climbing Chicago Center
12:32AM 41.1516 -85.5197 118° Southeast  Level Estimated
12:32AM 42.1597 -87.5633 118° Southeast 162 186 5,000  Level Chicago Center
12:33AM 42.1394 -87.5117 118° Southeast 160 184 5,600 480 Climbing Chicago Center
12:34AM 42.1175 -87.4625 121° Southeast 157 181 6,000 360 Climbing Chicago Center
12:35AM 42.0942 -87.4128 122° Southeast 156 180 6,400 360 Climbing Chicago Center
12:36AM 42.0717 -87.3611 120° Southeast 158 182 6,800 240 Climbing Chicago Center
12:37AM 42.0511 -87.3072 117° Southeast 160 184 6,900  Climbing Chicago Center
12:38AM 42.0269 -87.2481 119° Southeast 172 198 6,900  Level Chicago Center
12:39AM 42.0019 -87.1897 120° Southeast 178 205 6,900  Level Chicago Center
12:40AM 41.9756 -87.1322 122° Southeast 180 207 6,900  Level Chicago Center
12:41AM 41.9483 -87.0733 122° Southeast 184 212 6,900  Level Chicago Center
12:42AM 41.9253 -87.0136 117° Southeast 182 209 7,000  Climbing Chicago Center
12:43AM 41.9003 -86.9556 120° Southeast 181 208 6,900 -60 Descending Chicago Center
12:44AM 41.8750 -86.8958 120° Southeast 183 211 6,900  Level Chicago Center
12:45AM 41.8469 -86.8378 123° Southeast 184 212 6,900  Level Chicago Center
12:46AM 41.8219 -86.7786 120° Southeast 183 211 6,900  Level Chicago Center
12:47AM 41.7869 -86.7103 124° Southeast 185 213 6,900  Level Chicago Center
12:48AM 41.7561 -86.6656 133° Southeast 189 217 6,900  Level Chicago Center
12:49AM 41.7314 -86.6056 119° Southeast 186 214 6,900  Level Chicago Center
12:50AM 41.7083 -86.5444 117° Southeast 183 211 6,900  Level Chicago Center
12:51AM 41.6811 -86.4850 122° Southeast 187 215 6,900  Level Chicago Center
12:52AM 41.6544 -86.4247 121° Southeast 188 216 6,900  Level Chicago Center
12:53AM 41.6253 -86.3650 123° Southeast 191 220 6,900  Level Chicago Center
12:54AM 41.5989 -86.3058 121° Southeast 187 215 6,900  Level Chicago Center
12:55AM 41.5658 -86.2331 121° Southeast 191 220 6,900  Level Chicago Center
12:56AM 41.5375 -86.1733 122° Southeast 192 221 6,900  Level Chicago Center
12:57AM 41.5092 -86.1133 122° Southeast 191 220 6,900  Level Chicago Center
12:58AM 41.4786 -86.0544 125° Southeast 193 222 6,900  Level Chicago Center
12:59AM 41.4508 -85.9953 122° Southeast 190 219 7,000  Climbing Chicago Center
01:00AM 41.4219 -85.9364 123° Southeast 192 221 6,900 -60 Descending Chicago Center
01:01AM 41.3939 -85.8767 122° Southeast 191 220 6,900  Level Chicago Center
01:02AM 41.3656 -85.8172 122° Southeast 191 220 7,000  Climbing Chicago Center
01:03AM 41.3372 -85.7589 123° Southeast 190 219 7,000  Level Chicago Center
01:04AM 41.3092 -85.7000 122° Southeast 189 217 7,100 -60 Climbing Chicago Center
01:05AM 41.2814 -85.6403 122° Southeast 191 220 6,900 -120 Descending Chicago Center
01:06AM 41.2533 -85.5808 122° Southeast 192 221 6,900  Level Chicago Center
01:07AM 41.2264 -85.5194 120° Southeast 194 223 6,900  Level Chicago Center
01:08AM 41.1986 -85.4600 122° Southeast 191 220 7,000  Climbing Chicago Center
01:09AM 41.1708 -85.4008 122° Southeast 191 220 6,900  Descending Chicago Center
01:10AM 41.1428 -85.3411 122° Southeast 191 220 7,000  Climbing Chicago Center
01:11AM 41.1181 -85.2817 119° Southeast 186 214 7,000 -60 Level Chicago Center
01:12AM 41.0897 -85.2242 123° Southeast 187 215 6,900 -60 Descending Chicago Center
01:13AM 41.0619 -85.1653 122° Southeast 188 216 6,900 -60 Level Chicago Center
01:14AM 41.0300 -85.0942 121° Southeast 188 216 6,800 -60 Descending Chicago Center
01:15AM 41.0025 -85.0378 123° Southeast 185 213 6,800  Level Chicago Center
01:16AM 40.9789 -84.9756 117° Southeast 187 215 6,900  Climbing Chicago Center
01:17AM 40.9514 -84.9175 122° Southeast 188 216 6,900  Level Chicago Center
01:18AM 40.9183 -84.8639 129° Southeast 190 219 6,900  Level Chicago Center
01:19AM 40.8922 -84.8047 120° Southeast 187 215 6,900  Level Chicago Center
01:20AM 40.8650 -84.7464 122° Southeast 187 215 6,900  Level Chicago Center
01:21AM 40.8378 -84.6869 121° Southeast 189 217 7,000  Climbing Chicago Center
01:22AM 40.8161 -84.6247 115° Southeast 187 215 7,000  Level Chicago Center
01:23AM 40.7925 -84.5775 123° Southeast 187 215 7,000  Level Indianapolis Center
01:24AM 40.7661 -84.5178 120° Southeast 187 215 7,000  Level Indianapolis Center
01:25AM 40.7375 -84.4558 121° Southeast 194 223 7,000 -60 Level Indianapolis Center
01:26AM 40.7108 -84.3958 120° Southeast 190 219 6,900  Descending Indianapolis Center
01:27AM 40.6956 -84.3683 126° Southeast 190 219 7,000 60 Climbing Indianapolis Center
01:27AM 40.6825 -84.3372 119° Southeast 189 217 7,000 -120 Level Indianapolis Center
01:28AM 40.6550 -84.2767 121° Southeast 190 219 6,900 -60 Descending Indianapolis Center
01:29AM 40.6264 -84.2142 121° Southeast 194 223 6,900  Level Indianapolis Center
01:30AM 40.5969 -84.1553 123° Southeast 193 222 6,900  Level Indianapolis Center
01:31AM 40.5703 -84.0961 121° Southeast 188 216 6,900 -60 Level Indianapolis Center
01:32AM 40.5419 -84.0367 122° Southeast 190 219 6,800 -240 Descending Indianapolis Center
01:33AM 40.5128 -83.9756 122° Southeast 193 222 6,500 -300 Descending Indianapolis Center
01:34AM 40.4811 -83.9131 124° Southeast 199 229 6,200 -420 Descending Indianapolis Center
01:35AM 40.4514 -83.8489 121° Southeast 201 231 5,700 -480 Descending Indianapolis Center
01:36AM 40.4217 -83.7858 122° Southeast 202 232 5,300 -420 Descending Indianapolis Center
01:37AM 40.3897 -83.7231 124° Southeast 203 234 4,900 -420 Descending Indianapolis Center
01:38AM 40.3631 -83.6706 124° Southeast 204 235 4,500 -420 Descending Indianapolis Center
01:39AM 40.3336 -83.6081 122° Southeast 202 232 4,100 -420 Descending Indianapolis Center
01:40AM 40.3042 -83.5467 122° Southeast 199 229 3,700 -360 Descending Indianapolis Center
01:41AM 40.2747 -83.4872 123° Southeast 196 226 3,400 -300 Descending Indianapolis Center
01:42AM 40.2456 -83.4281 123° Southeast 193 222 3,100 -180 Descending Indianapolis Center
01:43AM 40.2183 -83.3722 123° Southeast 193 222 3,100  Level Indianapolis Center
01:45AM 40.1758 -83.2848 123° Southeast  Level FlightAware Approximate
01:52AM 40.0798 -83.0732 123° Southeast  Level Estimated
01:53AM 40.0798 -83.0732 123° Southeast  Level Estimated